Falls City, Texas
Current Conditions -  °F | °C
As of 10:55 PM on Friday 21 Nov 2014 (Local Time) from KPEZ Reporting Station
Overcast Overcast  
Wind Chill: 69°   Ceiling: 2200
Heat Index: 69°   Visibility: 10mi
Dew Point: 65°   Wind: 8mph
Humidity: 88%   Direction: 120°ESE
Pressure: 30.05"   Gusts: 17mph
Location:  28.98°N, 98.02°W
Report Text: KPEZ 220455Z AUTO 12007G15KT 10SM SCT015 BKN022 OVC050 21/19 A3005 RMK AO2 T02060185
Loading
Personal Weather Stations






























Interactive Weather Map New forecast layout! Learn more

10-Day Weather Forecast

Advertisements
Track Severe Weather on mobile